sensor_id;sensor_type;location;lat;lon;timestamp;P1;durP1;ratioP1;P2;durP2;ratioP2
58366;SDS011;57745;42.524;12.052;2023-03-03T00:01:24;3.85;;;2.05;;
58366;SDS011;57745;42.524;12.052;2023-03-03T00:03:50;3.05;;;1.80;;
58366;SDS011;57745;42.524;12.052;2023-03-03T00:06:16;3.88;;;2.42;;
58366;SDS011;57745;42.524;12.052;2023-03-03T00:08:42;3.72;;;2.53;;
58366;SDS011;57745;42.524;12.052;2023-03-03T00:11:07;4.15;;;2.90;;
58366;SDS011;57745;42.524;12.052;2023-03-03T00:13:50;4.05;;;2.47;;
58366;SDS011;57745;42.524;12.052;2023-03-03T00:16:31;4.28;;;3.00;;
58366;SDS011;57745;42.524;12.052;2023-03-03T00:23:58;3.03;;;2.30;;
58366;SDS011;57745;42.524;12.052;2023-03-03T00:26:40;3.75;;;2.70;;
58366;SDS011;57745;42.524;12.052;2023-03-03T00:31:57;2.78;;;2.10;;
58366;SDS011;57745;42.524;12.052;2023-03-03T00:34:36;3.88;;;2.35;;
58366;SDS011;57745;42.524;12.052;2023-03-03T00:37:02;3.17;;;2.28;;
58366;SDS011;57745;42.524;12.052;2023-03-03T00:39:35;5.22;;;2.30;;
58366;SDS011;57745;42.524;12.052;2023-03-03T00:42:35;3.80;;;2.35;;
58366;SDS011;57745;42.524;12.052;2023-03-03T00:44:58;4.57;;;3.17;;
58366;SDS011;57745;42.524;12.052;2023-03-03T00:47:30;4.07;;;2.88;;
58366;SDS011;57745;42.524;12.052;2023-03-03T00:52:30;5.50;;;3.15;;
58366;SDS011;57745;42.524;12.052;2023-03-03T00:54:59;8.68;;;3.30;;
58366;SDS011;57745;42.524;12.052;2023-03-03T00:57:25;5.18;;;2.80;;
58366;SDS011;57745;42.524;12.052;2023-03-03T00:59:50;4.78;;;2.67;;
58366;SDS011;57745;42.524;12.052;2023-03-03T01:02:16;4.50;;;2.58;;
58366;SDS011;57745;42.524;12.052;2023-03-03T01:04:42;4.45;;;2.80;;
58366;SDS011;57745;42.524;12.052;2023-03-03T01:07:12;4.45;;;2.25;;
58366;SDS011;57745;42.524;12.052;2023-03-03T01:09:38;3.05;;;2.05;;
58366;SDS011;57745;42.524;12.052;2023-03-03T01:12:03;3.85;;;2.72;;
58366;SDS011;57745;42.524;12.052;2023-03-03T01:14:29;4.07;;;2.47;;
58366;SDS011;57745;42.524;12.052;2023-03-03T01:16:56;3.25;;;2.30;;
58366;SDS011;57745;42.524;12.052;2023-03-03T01:19:22;4.82;;;2.20;;
58366;SDS011;57745;42.524;12.052;2023-03-03T01:21:48;3.30;;;2.30;;
58366;SDS011;57745;42.524;12.052;2023-03-03T01:24:13;4.95;;;2.63;;
58366;SDS011;57745;42.524;12.052;2023-03-03T01:26:38;4.05;;;2.35;;
58366;SDS011;57745;42.524;12.052;2023-03-03T01:29:04;3.58;;;2.50;;
58366;SDS011;57745;42.524;12.052;2023-03-03T01:31:29;3.30;;;2.22;;
58366;SDS011;57745;42.524;12.052;2023-03-03T01:33:55;4.22;;;2.17;;
58366;SDS011;57745;42.524;12.052;2023-03-03T01:36:24;3.45;;;2.50;;
58366;SDS011;57745;42.524;12.052;2023-03-03T01:38:50;3.65;;;2.63;;
58366;SDS011;57745;42.524;12.052;2023-03-03T01:41:16;6.22;;;2.58;;
58366;SDS011;57745;42.524;12.052;2023-03-03T01:43:42;3.88;;;2.50;;
58366;SDS011;57745;42.524;12.052;2023-03-03T01:49:06;2.90;;;2.28;;
58366;SDS011;57745;42.524;12.052;2023-03-03T01:51:41;4.07;;;2.88;;
58366;SDS011;57745;42.524;12.052;2023-03-03T01:56:41;3.72;;;2.05;;
58366;SDS011;57745;42.524;12.052;2023-03-03T01:59:27;3.60;;;2.45;;
58366;SDS011;57745;42.524;12.052;2023-03-03T02:02:01;3.53;;;2.40;;
58366;SDS011;57745;42.524;12.052;2023-03-03T02:04:27;5.10;;;3.20;;
58366;SDS011;57745;42.524;12.052;2023-03-03T02:06:59;5.30;;;2.45;;
58366;SDS011;57745;42.524;12.052;2023-03-03T02:09:40;3.25;;;2.40;;
58366;SDS011;57745;42.524;12.052;2023-03-03T02:12:08;2.92;;;2.35;;
58366;SDS011;57745;42.524;12.052;2023-03-03T02:14:36;5.70;;;2.40;;
58366;SDS011;57745;42.524;12.052;2023-03-03T02:17:02;5.32;;;2.47;;
58366;SDS011;57745;42.524;12.052;2023-03-03T02:22:16;3.80;;;2.63;;
58366;SDS011;57745;42.524;12.052;2023-03-03T02:24:52;5.47;;;2.17;;
58366;SDS011;57745;42.524;12.052;2023-03-03T02:27:24;4.00;;;2.40;;
58366;SDS011;57745;42.524;12.052;2023-03-03T02:29:51;3.20;;;2.28;;
58366;SDS011;57745;42.524;12.052;2023-03-03T02:32:16;3.83;;;2.65;;
58366;SDS011;57745;42.524;12.052;2023-03-03T02:34:49;4.63;;;2.10;;
58366;SDS011;57745;42.524;12.052;2023-03-03T02:37:16;3.60;;;2.15;;
58366;SDS011;57745;42.524;12.052;2023-03-03T02:39:43;2.70;;;2.30;;
58366;SDS011;57745;42.524;12.052;2023-03-03T02:44:44;3.17;;;2.38;;
58366;SDS011;57745;42.524;12.052;2023-03-03T02:47:10;2.47;;;1.83;;
58366;SDS011;57745;42.524;12.052;2023-03-03T02:49:35;2.47;;;2.15;;
58366;SDS011;57745;42.524;12.052;2023-03-03T02:52:02;3.10;;;2.10;;
58366;SDS011;57745;42.524;12.052;2023-03-03T02:54:31;3.92;;;2.10;;
58366;SDS011;57745;42.524;12.052;2023-03-03T02:56:57;4.82;;;1.88;;
58366;SDS011;57745;42.524;12.052;2023-03-03T02:59:23;3.55;;;2.13;;
58366;SDS011;57745;42.524;12.052;2023-03-03T03:01:49;3.67;;;2.20;;
58366;SDS011;57745;42.524;12.052;2023-03-03T03:04:16;3.05;;;1.80;;
58366;SDS011;57745;42.524;12.052;2023-03-03T03:06:43;2.15;;;1.67;;
58366;SDS011;57745;42.524;12.052;2023-03-03T03:09:10;2.72;;;1.75;;
58366;SDS011;57745;42.524;12.052;2023-03-03T03:11:36;2.17;;;1.80;;
58366;SDS011;57745;42.524;12.052;2023-03-03T03:14:02;2.05;;;1.48;;
58366;SDS011;57745;42.524;12.052;2023-03-03T03:16:29;1.80;;;1.50;;
58366;SDS011;57745;42.524;12.052;2023-03-03T03:18:56;2.95;;;1.63;;
58366;SDS011;57745;42.524;12.052;2023-03-03T03:21:21;2.20;;;1.60;;
58366;SDS011;57745;42.524;12.052;2023-03-03T03:23:47;3.63;;;1.70;;
58366;SDS011;57745;42.524;12.052;2023-03-03T03:26:12;2.22;;;1.90;;
58366;SDS011;57745;42.524;12.052;2023-03-03T03:28:38;3.63;;;2.17;;
58366;SDS011;57745;42.524;12.052;2023-03-03T03:31:04;3.88;;;1.98;;
58366;SDS011;57745;42.524;12.052;2023-03-03T03:33:30;5.82;;;2.28;;
58366;SDS011;57745;42.524;12.052;2023-03-03T03:35:56;2.90;;;1.95;;
58366;SDS011;57745;42.524;12.052;2023-03-03T03:38:23;3.33;;;2.25;;
58366;SDS011;57745;42.524;12.052;2023-03-03T03:40:49;3.88;;;1.95;;
58366;SDS011;57745;42.524;12.052;2023-03-03T03:43:15;3.22;;;1.65;;
58366;SDS011;57745;42.524;12.052;2023-03-03T03:45:41;9.05;;;2.85;;
58366;SDS011;57745;42.524;12.052;2023-03-03T03:48:07;3.15;;;2.53;;
58366;SDS011;57745;42.524;12.052;2023-03-03T03:50:33;4.10;;;1.73;;
58366;SDS011;57745;42.524;12.052;2023-03-03T03:52:58;2.90;;;2.05;;
58366;SDS011;57745;42.524;12.052;2023-03-03T03:55:24;2.10;;;1.50;;
58366;SDS011;57745;42.524;12.052;2023-03-03T03:57:49;2.53;;;1.50;;
58366;SDS011;57745;42.524;12.052;2023-03-03T04:00:15;3.50;;;1.40;;
58366;SDS011;57745;42.524;12.052;2023-03-03T04:02:41;1.45;;;1.00;;
58366;SDS011;57745;42.524;12.052;2023-03-03T04:05:06;2.10;;;1.30;;
58366;SDS011;57745;42.524;12.052;2023-03-03T04:07:32;3.03;;;1.45;;
58366;SDS011;57745;42.524;12.052;2023-03-03T04:09:58;2.50;;;1.52;;
58366;SDS011;57745;42.524;12.052;2023-03-03T04:12:23;2.38;;;1.70;;
58366;SDS011;57745;42.524;12.052;2023-03-03T04:14:49;2.25;;;1.67;;
58366;SDS011;57745;42.524;12.052;2023-03-03T04:17:15;3.22;;;1.70;;
58366;SDS011;57745;42.524;12.052;2023-03-03T04:19:45;4.05;;;1.80;;
58366;SDS011;57745;42.524;12.052;2023-03-03T04:22:11;2.15;;;1.70;;
58366;SDS011;57745;42.524;12.052;2023-03-03T04:24:38;4.88;;;1.75;;
58366;SDS011;57745;42.524;12.052;2023-03-03T04:27:04;2.28;;;1.90;;
58366;SDS011;57745;42.524;12.052;2023-03-03T04:29:30;2.83;;;1.92;;
58366;SDS011;57745;42.524;12.052;2023-03-03T04:31:55;3.28;;;1.77;;
58366;SDS011;57745;42.524;12.052;2023-03-03T04:34:21;4.38;;;2.22;;
58366;SDS011;57745;42.524;12.052;2023-03-03T04:36:46;4.20;;;1.70;;
58366;SDS011;57745;42.524;12.052;2023-03-03T04:39:12;2.83;;;2.20;;
58366;SDS011;57745;42.524;12.052;2023-03-03T04:41:37;3.75;;;2.20;;
58366;SDS011;57745;42.524;12.052;2023-03-03T04:44:03;2.97;;;2.05;;
58366;SDS011;57745;42.524;12.052;2023-03-03T04:46:28;4.68;;;2.80;;
58366;SDS011;57745;42.524;12.052;2023-03-03T04:48:54;5.57;;;2.55;;
58366;SDS011;57745;42.524;12.052;2023-03-03T04:51:19;4.05;;;2.58;;
58366;SDS011;57745;42.524;12.052;2023-03-03T04:53:45;6.78;;;2.42;;
58366;SDS011;57745;42.524;12.052;2023-03-03T04:56:10;5.38;;;2.50;;
58366;SDS011;57745;42.524;12.052;2023-03-03T04:58:36;5.38;;;2.17;;
58366;SDS011;57745;42.524;12.052;2023-03-03T05:01:02;5.60;;;2.47;;
58366;SDS011;57745;42.524;12.052;2023-03-03T05:03:27;4.03;;;2.92;;
58366;SDS011;57745;42.524;12.052;2023-03-03T05:05:53;5.03;;;2.90;;
58366;SDS011;57745;42.524;12.052;2023-03-03T05:08:18;4.18;;;2.45;;
58366;SDS011;57745;42.524;12.052;2023-03-03T05:10:44;2.92;;;2.38;;
58366;SDS011;57745;42.524;12.052;2023-03-03T05:13:09;4.18;;;2.42;;
58366;SDS011;57745;42.524;12.052;2023-03-03T05:15:35;3.40;;;2.60;;
58366;SDS011;57745;42.524;12.052;2023-03-03T05:18:01;3.63;;;2.42;;
58366;SDS011;57745;42.524;12.052;2023-03-03T05:20:26;4.70;;;2.83;;
58366;SDS011;57745;42.524;12.052;2023-03-03T05:22:52;4.40;;;2.72;;
58366;SDS011;57745;42.524;12.052;2023-03-03T05:25:18;4.45;;;2.80;;
58366;SDS011;57745;42.524;12.052;2023-03-03T05:27:45;4.32;;;3.38;;
58366;SDS011;57745;42.524;12.052;2023-03-03T05:30:10;5.30;;;3.10;;
58366;SDS011;57745;42.524;12.052;2023-03-03T05:32:36;5.82;;;2.90;;
58366;SDS011;57745;42.524;12.052;2023-03-03T05:35:02;4.22;;;2.78;;
58366;SDS011;57745;42.524;12.052;2023-03-03T05:37:29;4.82;;;3.05;;
58366;SDS011;57745;42.524;12.052;2023-03-03T05:39:54;6.45;;;3.42;;
58366;SDS011;57745;42.524;12.052;2023-03-03T05:42:20;7.38;;;3.00;;
58366;SDS011;57745;42.524;12.052;2023-03-03T05:44:46;3.60;;;2.95;;
58366;SDS011;57745;42.524;12.052;2023-03-03T05:47:11;7.88;;;3.15;;
58366;SDS011;57745;42.524;12.052;2023-03-03T05:49:37;6.25;;;3.40;;
58366;SDS011;57745;42.524;12.052;2023-03-03T05:52:02;6.47;;;3.30;;
58366;SDS011;57745;42.524;12.052;2023-03-03T05:54:28;4.35;;;3.10;;
58366;SDS011;57745;42.524;12.052;2023-03-03T05:56:53;5.50;;;3.00;;
58366;SDS011;57745;42.524;12.052;2023-03-03T05:59:20;5.25;;;2.90;;
58366;SDS011;57745;42.524;12.052;2023-03-03T06:01:45;4.13;;;2.88;;
58366;SDS011;57745;42.524;12.052;2023-03-03T06:04:12;4.47;;;2.90;;
58366;SDS011;57745;42.524;12.052;2023-03-03T06:06:38;6.07;;;2.92;;
58366;SDS011;57745;42.524;12.052;2023-03-03T06:09:03;7.80;;;3.30;;
58366;SDS011;57745;42.524;12.052;2023-03-03T06:11:29;12.48;;;5.05;;
58366;SDS011;57745;42.524;12.052;2023-03-03T06:13:54;14.65;;;6.18;;
58366;SDS011;57745;42.524;12.052;2023-03-03T06:16:20;10.75;;;4.80;;
58366;SDS011;57745;42.524;12.052;2023-03-03T06:18:46;13.88;;;4.43;;
58366;SDS011;57745;42.524;12.052;2023-03-03T06:21:11;10.25;;;4.13;;
58366;SDS011;57745;42.524;12.052;2023-03-03T06:23:36;6.03;;;3.40;;
58366;SDS011;57745;42.524;12.052;2023-03-03T06:26:03;7.60;;;3.75;;
58366;SDS011;57745;42.524;12.052;2023-03-03T06:28:28;6.45;;;3.63;;
58366;SDS011;57745;42.524;12.052;2023-03-03T06:30:54;5.32;;;3.42;;
58366;SDS011;57745;42.524;12.052;2023-03-03T06:33:20;6.20;;;2.80;;
58366;SDS011;57745;42.524;12.052;2023-03-03T06:35:50;3.75;;;2.80;;
58366;SDS011;57745;42.524;12.052;2023-03-03T06:38:17;6.53;;;3.70;;
58366;SDS011;57745;42.524;12.052;2023-03-03T06:40:43;10.85;;;5.13;;
58366;SDS011;57745;42.524;12.052;2023-03-03T06:43:09;7.53;;;3.80;;
58366;SDS011;57745;42.524;12.052;2023-03-03T06:45:34;5.53;;;3.00;;
58366;SDS011;57745;42.524;12.052;2023-03-03T06:48:00;4.90;;;3.17;;
58366;SDS011;57745;42.524;12.052;2023-03-03T06:50:26;4.72;;;2.90;;
58366;SDS011;57745;42.524;12.052;2023-03-03T06:52:55;4.28;;;2.70;;
58366;SDS011;57745;42.524;12.052;2023-03-03T06:55:31;4.55;;;2.67;;
58366;SDS011;57745;42.524;12.052;2023-03-03T06:57:58;5.68;;;3.60;;
58366;SDS011;57745;42.524;12.052;2023-03-03T07:00:24;5.38;;;3.42;;
58366;SDS011;57745;42.524;12.052;2023-03-03T07:03:01;4.22;;;2.53;;
58366;SDS011;57745;42.524;12.052;2023-03-03T07:05:32;5.82;;;2.70;;
58366;SDS011;57745;42.524;12.052;2023-03-03T07:07:58;6.80;;;2.90;;
58366;SDS011;57745;42.524;12.052;2023-03-03T07:10:24;3.00;;;2.50;;
58366;SDS011;57745;42.524;12.052;2023-03-03T07:12:52;5.07;;;2.80;;
58366;SDS011;57745;42.524;12.052;2023-03-03T07:15:25;7.35;;;2.90;;
58366;SDS011;57745;42.524;12.052;2023-03-03T07:17:58;4.10;;;2.38;;
58366;SDS011;57745;42.524;12.052;2023-03-03T07:25:49;6.57;;;2.67;;
58366;SDS011;57745;42.524;12.052;2023-03-03T07:30:47;5.78;;;2.67;;
58366;SDS011;57745;42.524;12.052;2023-03-03T07:33:26;6.20;;;3.03;;
58366;SDS011;57745;42.524;12.052;2023-03-03T07:35:55;4.35;;;2.58;;
58366;SDS011;57745;42.524;12.052;2023-03-03T07:41:00;6.00;;;3.10;;
58366;SDS011;57745;42.524;12.052;2023-03-03T07:45:56;4.78;;;2.80;;
58366;SDS011;57745;42.524;12.052;2023-03-03T07:48:33;3.85;;;2.65;;
58366;SDS011;57745;42.524;12.052;2023-03-03T07:51:02;9.43;;;3.00;;
58366;SDS011;57745;42.524;12.052;2023-03-03T07:53:30;3.80;;;2.60;;
58366;SDS011;57745;42.524;12.052;2023-03-03T07:55:59;5.07;;;2.65;;
58366;SDS011;57745;42.524;12.052;2023-03-03T08:03:58;6.38;;;2.55;;
58366;SDS011;57745;42.524;12.052;2023-03-03T08:15:14;2.50;;;2.10;;
58366;SDS011;57745;42.524;12.052;2023-03-03T08:17:43;4.93;;;2.60;;
58366;SDS011;57745;42.524;12.052;2023-03-03T08:22:53;3.25;;;2.20;;
58366;SDS011;57745;42.524;12.052;2023-03-03T08:25:18;3.47;;;2.10;;
58366;SDS011;57745;42.524;12.052;2023-03-03T08:27:44;5.47;;;2.28;;
58366;SDS011;57745;42.524;12.052;2023-03-03T08:30:09;3.38;;;2.00;;
58366;SDS011;57745;42.524;12.052;2023-03-03T08:32:35;6.97;;;2.42;;
58366;SDS011;57745;42.524;12.052;2023-03-03T08:35:01;4.95;;;2.50;;
58366;SDS011;57745;42.524;12.052;2023-03-03T08:37:26;2.83;;;2.03;;
58366;SDS011;57745;42.524;12.052;2023-03-03T08:39:52;3.03;;;1.92;;
58366;SDS011;57745;42.524;12.052;2023-03-03T08:42:17;6.10;;;2.20;;
58366;SDS011;57745;42.524;12.052;2023-03-03T08:44:42;5.60;;;2.40;;
58366;SDS011;57745;42.524;12.052;2023-03-03T08:47:08;5.40;;;2.20;;
58366;SDS011;57745;42.524;12.052;2023-03-03T08:49:33;4.03;;;2.40;;
58366;SDS011;57745;42.524;12.052;2023-03-03T08:51:59;3.38;;;2.20;;
58366;SDS011;57745;42.524;12.052;2023-03-03T08:54:24;3.25;;;2.22;;
58366;SDS011;57745;42.524;12.052;2023-03-03T08:56:50;2.95;;;2.08;;
58366;SDS011;57745;42.524;12.052;2023-03-03T08:59:16;2.90;;;1.85;;
58366;SDS011;57745;42.524;12.052;2023-03-03T09:01:41;2.92;;;1.90;;
58366;SDS011;57745;42.524;12.052;2023-03-03T09:04:08;3.83;;;1.63;;
58366;SDS011;57745;42.524;12.052;2023-03-03T09:06:34;5.03;;;2.30;;
58366;SDS011;57745;42.524;12.052;2023-03-03T09:09:00;3.58;;;1.45;;
58366;SDS011;57745;42.524;12.052;2023-03-03T09:11:26;3.22;;;1.80;;
58366;SDS011;57745;42.524;12.052;2023-03-03T09:14:11;4.22;;;1.85;;
58366;SDS011;57745;42.524;12.052;2023-03-03T09:16:39;3.28;;;1.80;;
58366;SDS011;57745;42.524;12.052;2023-03-03T09:19:32;5.05;;;1.60;;
58366;SDS011;57745;42.524;12.052;2023-03-03T09:22:02;2.53;;;1.52;;
58366;SDS011;57745;42.524;12.052;2023-03-03T09:24:42;2.88;;;1.60;;
58366;SDS011;57745;42.524;12.052;2023-03-03T09:27:12;2.55;;;1.80;;
58366;SDS011;57745;42.524;12.052;2023-03-03T09:29:43;2.50;;;1.90;;
58366;SDS011;57745;42.524;12.052;2023-03-03T09:32:23;2.30;;;1.50;;
58366;SDS011;57745;42.524;12.052;2023-03-03T09:38:01;1.95;;;1.20;;
58366;SDS011;57745;42.524;12.052;2023-03-03T09:54:26;2.78;;;1.50;;
58366;SDS011;57745;42.524;12.052;2023-03-03T09:57:04;2.70;;;1.52;;
58366;SDS011;57745;42.524;12.052;2023-03-03T09:59:39;2.92;;;1.40;;
58366;SDS011;57745;42.524;12.052;2023-03-03T10:02:15;1.90;;;1.25;;
58366;SDS011;57745;42.524;12.052;2023-03-03T10:16:30;3.10;;;1.58;;
58366;SDS011;57745;42.524;12.052;2023-03-03T10:19:02;2.15;;;1.15;;
58366;SDS011;57745;42.524;12.052;2023-03-03T10:22:17;2.63;;;1.27;;
58366;SDS011;57745;42.524;12.052;2023-03-03T10:27:43;3.72;;;1.77;;
58366;SDS011;57745;42.524;12.052;2023-03-03T10:32:57;2.67;;;1.42;;
58366;SDS011;57745;42.524;12.052;2023-03-03T10:40:46;3.88;;;1.35;;
58366;SDS011;57745;42.524;12.052;2023-03-03T10:46:03;3.45;;;1.50;;
58366;SDS011;57745;42.524;12.052;2023-03-03T11:02:02;3.22;;;1.60;;
58366;SDS011;57745;42.524;12.052;2023-03-03T11:16:25;2.78;;;1.48;;
58366;SDS011;57745;42.524;12.052;2023-03-03T11:21:50;3.00;;;1.20;;
58366;SDS011;57745;42.524;12.052;2023-03-03T11:33:09;2.43;;;1.20;;
58366;SDS011;57745;42.524;12.052;2023-03-03T11:47:02;2.30;;;1.13;;
58366;SDS011;57745;42.524;12.052;2023-03-03T11:54:56;2.97;;;1.35;;
58366;SDS011;57745;42.524;12.052;2023-03-03T11:57:32;2.83;;;1.27;;
58366;SDS011;57745;42.524;12.052;2023-03-03T12:00:14;2.30;;;1.30;;
58366;SDS011;57745;42.524;12.052;2023-03-03T12:12:43;1.90;;;1.10;;
58366;SDS011;57745;42.524;12.052;2023-03-03T12:28:45;2.08;;;1.60;;
58366;SDS011;57745;42.524;12.052;2023-03-03T12:31:33;4.75;;;1.48;;
58366;SDS011;57745;42.524;12.052;2023-03-03T12:34:40;3.65;;;1.73;;
58366;SDS011;57745;42.524;12.052;2023-03-03T12:40:25;2.60;;;1.30;;
58366;SDS011;57745;42.524;12.052;2023-03-03T12:42:59;3.45;;;1.50;;
58366;SDS011;57745;42.524;12.052;2023-03-03T13:04:30;4.70;;;1.50;;
58366;SDS011;57745;42.524;12.052;2023-03-03T13:15:19;1.98;;;1.60;;
58366;SDS011;57745;42.524;12.052;2023-03-03T13:23:12;2.10;;;1.20;;
58366;SDS011;57745;42.524;12.052;2023-03-03T13:25:57;2.30;;;1.50;;
58366;SDS011;57745;42.524;12.052;2023-03-03T13:31:12;4.18;;;2.03;;
58366;SDS011;57745;42.524;12.052;2023-03-03T13:33:43;4.05;;;1.83;;
58366;SDS011;57745;42.524;12.052;2023-03-03T13:36:16;3.75;;;1.90;;
58366;SDS011;57745;42.524;12.052;2023-03-03T13:38:46;3.85;;;2.20;;
58366;SDS011;57745;42.524;12.052;2023-03-03T13:41:27;2.90;;;2.08;;
58366;SDS011;57745;42.524;12.052;2023-03-03T13:44:01;4.00;;;2.05;;
58366;SDS011;57745;42.524;12.052;2023-03-03T13:52:32;3.20;;;1.80;;
58366;SDS011;57745;42.524;12.052;2023-03-03T13:55:09;5.22;;;1.80;;
58366;SDS011;57745;42.524;12.052;2023-03-03T14:00:46;5.03;;;1.77;;
58366;SDS011;57745;42.524;12.052;2023-03-03T14:08:48;4.00;;;2.10;;
58366;SDS011;57745;42.524;12.052;2023-03-03T14:35:31;3.53;;;2.33;;
58366;SDS011;57745;42.524;12.052;2023-03-03T14:38:07;4.03;;;2.50;;
58366;SDS011;57745;42.524;12.052;2023-03-03T14:40:37;8.75;;;3.08;;
58366;SDS011;57745;42.524;12.052;2023-03-03T14:43:21;5.60;;;3.75;;
58366;SDS011;57745;42.524;12.052;2023-03-03T14:45:52;3.70;;;2.95;;
58366;SDS011;57745;42.524;12.052;2023-03-03T14:50:55;5.10;;;3.28;;
58366;SDS011;57745;42.524;12.052;2023-03-03T14:58:46;4.60;;;2.63;;
58366;SDS011;57745;42.524;12.052;2023-03-03T15:01:30;6.65;;;2.65;;
58366;SDS011;57745;42.524;12.052;2023-03-03T15:04:06;7.20;;;3.67;;
58366;SDS011;57745;42.524;12.052;2023-03-03T15:06:49;4.85;;;3.42;;
58366;SDS011;57745;42.524;12.052;2023-03-03T15:17:34;9.88;;;5.55;;
58366;SDS011;57745;42.524;12.052;2023-03-03T15:20:12;5.85;;;4.18;;
58366;SDS011;57745;42.524;12.052;2023-03-03T15:39:53;7.35;;;3.60;;
58366;SDS011;57745;42.524;12.052;2023-03-03T15:50:59;9.38;;;5.20;;
58366;SDS011;57745;42.524;12.052;2023-03-03T15:53:51;6.65;;;3.95;;
58366;SDS011;57745;42.524;12.052;2023-03-03T15:56:31;7.30;;;4.30;;
58366;SDS011;57745;42.524;12.052;2023-03-03T15:59:39;7.07;;;3.85;;
58366;SDS011;57745;42.524;12.052;2023-03-03T16:02:17;6.72;;;4.05;;
58366;SDS011;57745;42.524;12.052;2023-03-03T16:04:58;7.18;;;3.53;;
58366;SDS011;57745;42.524;12.052;2023-03-03T16:18:32;7.80;;;3.80;;
58366;SDS011;57745;42.524;12.052;2023-03-03T16:24:20;6.60;;;3.40;;
58366;SDS011;57745;42.524;12.052;2023-03-03T16:27:09;5.07;;;2.92;;
58366;SDS011;57745;42.524;12.052;2023-03-03T16:32:43;8.88;;;4.85;;
58366;SDS011;57745;42.524;12.052;2023-03-03T16:35:24;8.80;;;4.18;;
58366;SDS011;57745;42.524;12.052;2023-03-03T16:46:05;6.38;;;4.00;;
58366;SDS011;57745;42.524;12.052;2023-03-03T16:48:57;4.13;;;2.90;;
58366;SDS011;57745;42.524;12.052;2023-03-03T17:00:22;7.25;;;4.50;;
58366;SDS011;57745;42.524;12.052;2023-03-03T17:10:50;6.05;;;4.22;;
58366;SDS011;57745;42.524;12.052;2023-03-03T17:21:31;18.75;;;11.00;;
58366;SDS011;57745;42.524;12.052;2023-03-03T17:24:57;16.23;;;8.77;;
58366;SDS011;57745;42.524;12.052;2023-03-03T17:27:24;9.25;;;5.47;;
58366;SDS011;57745;42.524;12.052;2023-03-03T17:37:39;10.95;;;9.68;;
58366;SDS011;57745;42.524;12.052;2023-03-03T17:40:54;11.35;;;7.57;;
58366;SDS011;57745;42.524;12.052;2023-03-03T17:43:43;8.20;;;7.05;;
58366;SDS011;57745;42.524;12.052;2023-03-03T17:46:46;8.77;;;7.88;;
58366;SDS011;57745;42.524;12.052;2023-03-03T17:49:14;12.57;;;8.77;;
58366;SDS011;57745;42.524;12.052;2023-03-03T17:55:37;21.70;;;10.98;;
58366;SDS011;57745;42.524;12.052;2023-03-03T18:03:33;24.92;;;15.20;;
58366;SDS011;57745;42.524;12.052;2023-03-03T18:11:44;23.40;;;12.13;;
58366;SDS011;57745;42.524;12.052;2023-03-03T18:25:08;17.92;;;11.30;;
58366;SDS011;57745;42.524;12.052;2023-03-03T18:27:36;15.23;;;9.70;;
58366;SDS011;57745;42.524;12.052;2023-03-03T18:35:25;9.35;;;5.65;;
58366;SDS011;57745;42.524;12.052;2023-03-03T18:37:53;8.05;;;5.90;;
58366;SDS011;57745;42.524;12.052;2023-03-03T18:40:32;9.40;;;5.72;;
58366;SDS011;57745;42.524;12.052;2023-03-03T18:42:59;8.02;;;5.03;;
58366;SDS011;57745;42.524;12.052;2023-03-03T18:46:03;11.35;;;4.88;;
58366;SDS011;57745;42.524;12.052;2023-03-03T19:08:41;89.28;;;40.15;;
58366;SDS011;57745;42.524;12.052;2023-03-03T19:11:00;28.80;;;16.88;;
58366;SDS011;57745;42.524;12.052;2023-03-03T19:16:32;29.73;;;16.75;;
58366;SDS011;57745;42.524;12.052;2023-03-03T19:31:36;11.48;;;8.75;;
58366;SDS011;57745;42.524;12.052;2023-03-03T19:34:06;10.32;;;7.47;;
58366;SDS011;57745;42.524;12.052;2023-03-03T19:42:53;11.98;;;6.03;;
58366;SDS011;57745;42.524;12.052;2023-03-03T19:53:54;12.85;;;5.80;;
58366;SDS011;57745;42.524;12.052;2023-03-03T20:02:45;13.65;;;8.50;;
58366;SDS011;57745;42.524;12.052;2023-03-03T20:05:19;11.82;;;6.90;;
58366;SDS011;57745;42.524;12.052;2023-03-03T20:13:30;10.43;;;5.55;;
58366;SDS011;57745;42.524;12.052;2023-03-03T20:22:24;7.80;;;5.57;;
58366;SDS011;57745;42.524;12.052;2023-03-03T20:25:12;9.57;;;4.78;;
58366;SDS011;57745;42.524;12.052;2023-03-03T20:27:58;10.02;;;4.90;;
58366;SDS011;57745;42.524;12.052;2023-03-03T20:33:26;7.47;;;4.25;;
58366;SDS011;57745;42.524;12.052;2023-03-03T20:38:52;6.88;;;4.60;;
58366;SDS011;57745;42.524;12.052;2023-03-03T20:44:13;8.07;;;4.35;;
58366;SDS011;57745;42.524;12.052;2023-03-03T20:52:03;9.15;;;4.35;;
58366;SDS011;57745;42.524;12.052;2023-03-03T21:00:12;6.00;;;4.05;;
58366;SDS011;57745;42.524;12.052;2023-03-03T21:05:23;6.88;;;3.55;;
58366;SDS011;57745;42.524;12.052;2023-03-03T21:10:30;4.88;;;3.55;;
58366;SDS011;57745;42.524;12.052;2023-03-03T21:23:56;9.65;;;5.60;;
58366;SDS011;57745;42.524;12.052;2023-03-03T21:32:00;20.35;;;10.25;;
58366;SDS011;57745;42.524;12.052;2023-03-03T21:34:31;18.67;;;11.40;;
58366;SDS011;57745;42.524;12.052;2023-03-03T21:37:01;16.48;;;10.48;;
58366;SDS011;57745;42.524;12.052;2023-03-03T21:39:34;13.65;;;8.23;;
58366;SDS011;57745;42.524;12.052;2023-03-03T21:47:00;12.30;;;7.40;;
58366;SDS011;57745;42.524;12.052;2023-03-03T21:49:26;12.07;;;6.75;;
58366;SDS011;57745;42.524;12.052;2023-03-03T21:51:53;9.52;;;6.30;;
58366;SDS011;57745;42.524;12.052;2023-03-03T21:54:19;7.80;;;5.70;;
58366;SDS011;57745;42.524;12.052;2023-03-03T21:56:44;8.35;;;5.88;;
58366;SDS011;57745;42.524;12.052;2023-03-03T21:59:12;6.88;;;5.10;;
58366;SDS011;57745;42.524;12.052;2023-03-03T22:01:37;7.18;;;4.75;;
58366;SDS011;57745;42.524;12.052;2023-03-03T22:04:03;6.47;;;4.78;;
58366;SDS011;57745;42.524;12.052;2023-03-03T22:06:29;7.32;;;4.50;;
58366;SDS011;57745;42.524;12.052;2023-03-03T22:08:55;6.25;;;4.32;;
58366;SDS011;57745;42.524;12.052;2023-03-03T22:11:21;11.05;;;5.38;;
58366;SDS011;57745;42.524;12.052;2023-03-03T22:13:46;8.88;;;5.10;;
58366;SDS011;57745;42.524;12.052;2023-03-03T22:16:11;11.48;;;5.85;;
58366;SDS011;57745;42.524;12.052;2023-03-03T22:18:37;10.23;;;5.70;;
58366;SDS011;57745;42.524;12.052;2023-03-03T22:21:02;9.30;;;5.15;;
58366;SDS011;57745;42.524;12.052;2023-03-03T22:23:29;9.90;;;5.82;;
58366;SDS011;57745;42.524;12.052;2023-03-03T22:25:55;7.10;;;4.93;;
58366;SDS011;57745;42.524;12.052;2023-03-03T22:28:20;8.25;;;5.07;;
58366;SDS011;57745;42.524;12.052;2023-03-03T22:30:46;9.45;;;5.18;;
58366;SDS011;57745;42.524;12.052;2023-03-03T22:33:11;5.75;;;4.45;;
58366;SDS011;57745;42.524;12.052;2023-03-03T22:35:37;7.38;;;5.10;;
58366;SDS011;57745;42.524;12.052;2023-03-03T22:38:02;6.75;;;4.57;;
58366;SDS011;57745;42.524;12.052;2023-03-03T22:40:28;6.93;;;4.90;;
58366;SDS011;57745;42.524;12.052;2023-03-03T22:42:53;6.15;;;4.55;;
58366;SDS011;57745;42.524;12.052;2023-03-03T22:45:19;7.38;;;4.40;;
58366;SDS011;57745;42.524;12.052;2023-03-03T22:47:44;7.57;;;5.18;;
58366;SDS011;57745;42.524;12.052;2023-03-03T22:50:10;6.75;;;4.47;;
58366;SDS011;57745;42.524;12.052;2023-03-03T22:52:36;7.22;;;4.72;;
58366;SDS011;57745;42.524;12.052;2023-03-03T22:55:02;7.28;;;4.38;;
58366;SDS011;57745;42.524;12.052;2023-03-03T22:57:28;7.38;;;4.10;;
58366;SDS011;57745;42.524;12.052;2023-03-03T22:59:54;8.57;;;4.57;;
58366;SDS011;57745;42.524;12.052;2023-03-03T23:02:19;6.10;;;4.78;;
58366;SDS011;57745;42.524;12.052;2023-03-03T23:04:45;5.95;;;4.10;;